sensor_id;sensor_type;location;lat;lon;timestamp;pressure;altitude;pressure_sealevel;temperature
66473;BMP280;53291;51.680;8.344;2022-07-31T00:00:41;101030.47;;;21.66
66473;BMP280;53291;51.680;8.344;2022-07-31T00:03:07;101026.41;;;21.57
66473;BMP280;53291;51.680;8.344;2022-07-31T00:05:33;101035.44;;;21.61
66473;BMP280;53291;51.680;8.344;2022-07-31T00:08:00;101025.78;;;21.55
66473;BMP280;53291;51.680;8.344;2022-07-31T00:10:26;101021.97;;;21.51
66473;BMP280;53291;51.680;8.344;2022-07-31T00:12:51;101016.34;;;21.48
66473;BMP280;53291;51.680;8.344;2022-07-31T00:15:17;101017.34;;;21.47
66473;BMP280;53291;51.680;8.344;2022-07-31T00:17:43;101008.56;;;21.41
66473;BMP280;53291;51.680;8.344;2022-07-31T00:20:10;101011.56;;;21.38
66473;BMP280;53291;51.680;8.344;2022-07-31T00:22:40;101008.72;;;21.33
66473;BMP280;53291;51.680;8.344;2022-07-31T00:25:06;101010.47;;;21.26
66473;BMP280;53291;51.680;8.344;2022-07-31T00:27:32;101011.47;;;21.18
66473;BMP280;53291;51.680;8.344;2022-07-31T00:29:58;101012.22;;;21.12
66473;BMP280;53291;51.680;8.344;2022-07-31T00:32:23;101010.81;;;21.10
66473;BMP280;53291;51.680;8.344;2022-07-31T00:34:48;101008.38;;;21.02
66473;BMP280;53291;51.680;8.344;2022-07-31T00:37:14;101006.94;;;20.93
66473;BMP280;53291;51.680;8.344;2022-07-31T00:39:39;101008.72;;;20.92
66473;BMP280;53291;51.680;8.344;2022-07-31T00:42:05;100998.63;;;20.82
66473;BMP280;53291;51.680;8.344;2022-07-31T00:44:40;100993.00;;;20.79
66473;BMP280;53291;51.680;8.344;2022-07-31T00:47:05;101000.56;;;20.74
66473;BMP280;53291;51.680;8.344;2022-07-31T00:49:31;100998.22;;;20.72
66473;BMP280;53291;51.680;8.344;2022-07-31T00:51:56;100994.56;;;20.67
66473;BMP280;53291;51.680;8.344;2022-07-31T00:54:22;100995.69;;;20.58
66473;BMP280;53291;51.680;8.344;2022-07-31T00:56:47;100999.66;;;20.54
66473;BMP280;53291;51.680;8.344;2022-07-31T00:59:13;100998.47;;;20.56
66473;BMP280;53291;51.680;8.344;2022-07-31T01:01:38;101001.44;;;20.53
66473;BMP280;53291;51.680;8.344;2022-07-31T01:04:03;100997.47;;;20.57
66473;BMP280;53291;51.680;8.344;2022-07-31T01:06:29;100998.84;;;20.53
66473;BMP280;53291;51.680;8.344;2022-07-31T01:08:54;100994.22;;;20.49
66473;BMP280;53291;51.680;8.344;2022-07-31T01:13:59;100981.13;;;20.36
66473;BMP280;53291;51.680;8.344;2022-07-31T01:16:31;100980.47;;;20.27
66473;BMP280;53291;51.680;8.344;2022-07-31T01:18:58;100984.44;;;20.23
66473;BMP280;53291;51.680;8.344;2022-07-31T01:21:35;100979.16;;;20.16
66473;BMP280;53291;51.680;8.344;2022-07-31T01:24:28;100988.06;;;20.07
66473;BMP280;53291;51.680;8.344;2022-07-31T01:27:05;100986.59;;;19.98
66473;BMP280;53291;51.680;8.344;2022-07-31T01:29:45;100982.69;;;19.88
66473;BMP280;53291;51.680;8.344;2022-07-31T01:32:24;100978.81;;;19.77
66473;BMP280;53291;51.680;8.344;2022-07-31T01:34:54;100975.16;;;19.71
66473;BMP280;53291;51.680;8.344;2022-07-31T01:37:24;100984.03;;;19.62
66473;BMP280;53291;51.680;8.344;2022-07-31T01:39:57;100974.00;;;19.59
66473;BMP280;53291;51.680;8.344;2022-07-31T01:42:24;100987.97;;;19.58
66473;BMP280;53291;51.680;8.344;2022-07-31T01:44:54;100981.91;;;19.51
66473;BMP280;53291;51.680;8.344;2022-07-31T01:47:22;100983.97;;;19.56
66473;BMP280;53291;51.680;8.344;2022-07-31T01:49:49;100983.38;;;19.54
66473;BMP280;53291;51.680;8.344;2022-07-31T01:52:16;100975.09;;;19.50
66473;BMP280;53291;51.680;8.344;2022-07-31T01:54:42;100977.34;;;19.53
66473;BMP280;53291;51.680;8.344;2022-07-31T01:57:08;100976.72;;;19.51
66473;BMP280;53291;51.680;8.344;2022-07-31T01:59:36;100978.88;;;19.48
66473;BMP280;53291;51.680;8.344;2022-07-31T02:02:03;100978.88;;;19.48
66473;BMP280;53291;51.680;8.344;2022-07-31T02:04:30;100981.03;;;19.44
66473;BMP280;53291;51.680;8.344;2022-07-31T02:06:58;100978.97;;;19.40
66473;BMP280;53291;51.680;8.344;2022-07-31T02:09:25;100973.34;;;19.36
66473;BMP280;53291;51.680;8.344;2022-07-31T02:11:52;100969.69;;;19.30
66473;BMP280;53291;51.680;8.344;2022-07-31T02:14:19;100972.66;;;19.27
66473;BMP280;53291;51.680;8.344;2022-07-31T02:16:46;100967.66;;;19.26
66473;BMP280;53291;51.680;8.344;2022-07-31T02:19:13;100962.72;;;19.16
66473;BMP280;53291;51.680;8.344;2022-07-31T02:21:40;100968.72;;;19.17
66473;BMP280;53291;51.680;8.344;2022-07-31T02:24:06;100970.66;;;19.15
66473;BMP280;53291;51.680;8.344;2022-07-31T02:26:33;100969.41;;;19.11
66473;BMP280;53291;51.680;8.344;2022-07-31T02:28:59;100963.19;;;19.05
66473;BMP280;53291;51.680;8.344;2022-07-31T02:31:25;100963.72;;;19.01
66473;BMP280;53291;51.680;8.344;2022-07-31T02:33:52;100967.63;;;18.97
66473;BMP280;53291;51.680;8.344;2022-07-31T02:36:18;100959.53;;;18.85
66473;BMP280;53291;51.680;8.344;2022-07-31T02:38:45;100958.44;;;18.79
66473;BMP280;53291;51.680;8.344;2022-07-31T02:41:13;100957.44;;;18.80
66473;BMP280;53291;51.680;8.344;2022-07-31T02:43:40;100954.50;;;18.83
66473;BMP280;53291;51.680;8.344;2022-07-31T02:46:06;100951.09;;;18.83
66473;BMP280;53291;51.680;8.344;2022-07-31T02:48:33;100951.63;;;18.78
66473;BMP280;53291;51.680;8.344;2022-07-31T02:50:58;100945.47;;;18.79
66473;BMP280;53291;51.680;8.344;2022-07-31T02:53:24;100946.09;;;18.81
66473;BMP280;53291;51.680;8.344;2022-07-31T02:55:51;100940.28;;;18.79
66473;BMP280;53291;51.680;8.344;2022-07-31T02:58:16;100941.34;;;18.70
66473;BMP280;53291;51.680;8.344;2022-07-31T03:00:42;100942.06;;;18.64
66473;BMP280;53291;51.680;8.344;2022-07-31T03:03:07;100934.84;;;18.60
66473;BMP280;53291;51.680;8.344;2022-07-31T03:05:33;100934.72;;;18.53
66473;BMP280;53291;51.680;8.344;2022-07-31T03:07:58;100931.69;;;18.50
66473;BMP280;53291;51.680;8.344;2022-07-31T03:10:24;100938.00;;;18.47
66473;BMP280;53291;51.680;8.344;2022-07-31T03:12:51;100934.16;;;18.43
66473;BMP280;53291;51.680;8.344;2022-07-31T03:15:19;100925.41;;;18.44
66473;BMP280;53291;51.680;8.344;2022-07-31T03:17:46;100922.13;;;18.50
66473;BMP280;53291;51.680;8.344;2022-07-31T03:20:13;100920.16;;;18.52
66473;BMP280;53291;51.680;8.344;2022-07-31T03:22:39;100923.81;;;18.58
66473;BMP280;53291;51.680;8.344;2022-07-31T03:25:05;100927.31;;;18.50
66473;BMP280;53291;51.680;8.344;2022-07-31T03:27:31;100923.09;;;18.49
66473;BMP280;53291;51.680;8.344;2022-07-31T03:29:57;100924.22;;;18.47
66473;BMP280;53291;51.680;8.344;2022-07-31T03:32:22;100924.75;;;18.42
66473;BMP280;53291;51.680;8.344;2022-07-31T03:34:48;100921.53;;;18.40
66473;BMP280;53291;51.680;8.344;2022-07-31T03:37:13;100922.09;;;18.35
66473;BMP280;53291;51.680;8.344;2022-07-31T03:39:39;100921.63;;;18.32
66473;BMP280;53291;51.680;8.344;2022-07-31T03:42:08;100928.31;;;18.26
66473;BMP280;53291;51.680;8.344;2022-07-31T03:44:35;100926.88;;;18.24
66473;BMP280;53291;51.680;8.344;2022-07-31T03:47:01;100919.66;;;18.34
66473;BMP280;53291;51.680;8.344;2022-07-31T03:49:26;100923.88;;;18.35
66473;BMP280;53291;51.680;8.344;2022-07-31T03:51:52;100922.25;;;18.34
66473;BMP280;53291;51.680;8.344;2022-07-31T03:54:18;100927.19;;;18.44
66473;BMP280;53291;51.680;8.344;2022-07-31T03:56:46;100926.66;;;18.48
66473;BMP280;53291;51.680;8.344;2022-07-31T03:59:16;100928.59;;;18.46
66473;BMP280;53291;51.680;8.344;2022-07-31T04:01:45;100926.81;;;18.47
66473;BMP280;53291;51.680;8.344;2022-07-31T04:04:11;100923.78;;;18.43
66473;BMP280;53291;51.680;8.344;2022-07-31T04:06:38;100928.09;;;18.36
66473;BMP280;53291;51.680;8.344;2022-07-31T04:09:03;100926.47;;;18.35
66473;BMP280;53291;51.680;8.344;2022-07-31T04:11:28;100928.59;;;18.31
66473;BMP280;53291;51.680;8.344;2022-07-31T04:13:54;100923.13;;;18.26
66473;BMP280;53291;51.680;8.344;2022-07-31T04:16:19;100925.53;;;18.28
66473;BMP280;53291;51.680;8.344;2022-07-31T04:18:45;100923.44;;;18.31
66473;BMP280;53291;51.680;8.344;2022-07-31T04:21:10;100924.50;;;18.37
66473;BMP280;53291;51.680;8.344;2022-07-31T04:23:35;100920.34;;;18.28
66473;BMP280;53291;51.680;8.344;2022-07-31T04:26:01;100927.97;;;18.29
66473;BMP280;53291;51.680;8.344;2022-07-31T04:28:26;100921.34;;;18.27
66473;BMP280;53291;51.680;8.344;2022-07-31T04:30:52;100928.91;;;18.36
66473;BMP280;53291;51.680;8.344;2022-07-31T04:33:17;100924.44;;;18.45
66473;BMP280;53291;51.680;8.344;2022-07-31T04:35:42;100921.41;;;18.56
66473;BMP280;53291;51.680;8.344;2022-07-31T04:38:08;100925.69;;;18.64
66473;BMP280;53291;51.680;8.344;2022-07-31T04:40:33;100930.16;;;18.70
66473;BMP280;53291;51.680;8.344;2022-07-31T04:42:58;100925.94;;;18.69
66473;BMP280;53291;51.680;8.344;2022-07-31T04:45:24;100925.09;;;18.76
66473;BMP280;53291;51.680;8.344;2022-07-31T04:47:49;100929.47;;;18.91
66473;BMP280;53291;51.680;8.344;2022-07-31T04:50:15;100928.41;;;19.00
66473;BMP280;53291;51.680;8.344;2022-07-31T04:52:40;100921.50;;;19.07
66473;BMP280;53291;51.680;8.344;2022-07-31T04:55:06;100914.38;;;19.09
66473;BMP280;53291;51.680;8.344;2022-07-31T04:57:31;100918.44;;;19.18
66473;BMP280;53291;51.680;8.344;2022-07-31T04:59:57;100917.38;;;19.27
66473;BMP280;53291;51.680;8.344;2022-07-31T05:02:22;100908.28;;;19.38
66473;BMP280;53291;51.680;8.344;2022-07-31T05:04:47;100911.41;;;19.48
66473;BMP280;53291;51.680;8.344;2022-07-31T05:07:13;100902.69;;;19.55
66473;BMP280;53291;51.680;8.344;2022-07-31T05:09:38;100908.13;;;19.60
66473;BMP280;53291;51.680;8.344;2022-07-31T05:12:04;100913.19;;;19.68
66473;BMP280;53291;51.680;8.344;2022-07-31T05:14:29;100901.53;;;19.79
66473;BMP280;53291;51.680;8.344;2022-07-31T05:16:55;100902.75;;;19.83
66473;BMP280;53291;51.680;8.344;2022-07-31T05:19:20;100904.16;;;19.85
66473;BMP280;53291;51.680;8.344;2022-07-31T05:21:46;100898.41;;;19.90
66473;BMP280;53291;51.680;8.344;2022-07-31T05:24:11;100897.16;;;19.86
66473;BMP280;53291;51.680;8.344;2022-07-31T05:26:37;100896.25;;;19.94
66473;BMP280;53291;51.680;8.344;2022-07-31T05:29:03;100899.66;;;19.94
66473;BMP280;53291;51.680;8.344;2022-07-31T05:31:29;100896.13;;;20.02
66473;BMP280;53291;51.680;8.344;2022-07-31T05:33:54;100896.59;;;20.12
66473;BMP280;53291;51.680;8.344;2022-07-31T05:36:20;100897.81;;;20.16
66473;BMP280;53291;51.680;8.344;2022-07-31T05:38:45;100895.09;;;20.24
66473;BMP280;53291;51.680;8.344;2022-07-31T05:41:11;100900.13;;;20.32
66473;BMP280;53291;51.680;8.344;2022-07-31T05:43:37;100891.97;;;20.35
66473;BMP280;53291;51.680;8.344;2022-07-31T05:46:03;100895.59;;;20.41
66473;BMP280;53291;51.680;8.344;2022-07-31T05:48:30;100898.84;;;20.49
66473;BMP280;53291;51.680;8.344;2022-07-31T05:50:56;100896.47;;;20.48
66473;BMP280;53291;51.680;8.344;2022-07-31T05:53:21;100890.28;;;20.55
66473;BMP280;53291;51.680;8.344;2022-07-31T05:55:48;100898.97;;;20.69
66473;BMP280;53291;51.680;8.344;2022-07-31T05:58:16;100893.38;;;20.72
66473;BMP280;53291;51.680;8.344;2022-07-31T06:00:43;100894.38;;;20.77
66473;BMP280;53291;51.680;8.344;2022-07-31T06:03:09;100891.63;;;20.86
66473;BMP280;53291;51.680;8.344;2022-07-31T06:05:37;100895.06;;;20.93
66473;BMP280;53291;51.680;8.344;2022-07-31T06:08:03;100894.47;;;21.04
66473;BMP280;53291;51.680;8.344;2022-07-31T06:10:28;100888.50;;;21.10
66473;BMP280;53291;51.680;8.344;2022-07-31T06:12:54;100890.72;;;21.19
66473;BMP280;53291;51.680;8.344;2022-07-31T06:15:19;100887.16;;;21.20
66473;BMP280;53291;51.680;8.344;2022-07-31T06:17:45;100892.53;;;21.25
66473;BMP280;53291;51.680;8.344;2022-07-31T06:20:11;100885.75;;;21.31
66473;BMP280;53291;51.680;8.344;2022-07-31T06:22:39;100888.34;;;21.31
66473;BMP280;53291;51.680;8.344;2022-07-31T06:25:06;100890.75;;;21.39
66473;BMP280;53291;51.680;8.344;2022-07-31T06:27:33;100890.19;;;21.50
66473;BMP280;53291;51.680;8.344;2022-07-31T06:29:58;100890.38;;;21.68
66473;BMP280;53291;51.680;8.344;2022-07-31T06:32:24;100883.81;;;21.85
66473;BMP280;53291;51.680;8.344;2022-07-31T06:34:49;100885.56;;;22.11
66473;BMP280;53291;51.680;8.344;2022-07-31T06:37:15;100876.50;;;22.27
66473;BMP280;53291;51.680;8.344;2022-07-31T06:39:40;100882.66;;;22.46
66473;BMP280;53291;51.680;8.344;2022-07-31T06:42:06;100879.00;;;22.60
66473;BMP280;53291;51.680;8.344;2022-07-31T06:44:32;100876.53;;;22.71
66473;BMP280;53291;51.680;8.344;2022-07-31T06:46:58;100875.63;;;22.90
66473;BMP280;53291;51.680;8.344;2022-07-31T06:49:23;100871.97;;;22.98
66473;BMP280;53291;51.680;8.344;2022-07-31T06:51:50;100864.59;;;23.26
66473;BMP280;53291;51.680;8.344;2022-07-31T06:54:15;100868.19;;;23.50
66473;BMP280;53291;51.680;8.344;2022-07-31T06:56:40;100871.03;;;23.73
66473;BMP280;53291;51.680;8.344;2022-07-31T06:59:06;100858.38;;;24.07
66473;BMP280;53291;51.680;8.344;2022-07-31T07:01:32;100859.34;;;24.30
66473;BMP280;53291;51.680;8.344;2022-07-31T07:03:58;100856.38;;;24.57
66473;BMP280;53291;51.680;8.344;2022-07-31T07:06:24;100860.09;;;24.79
66473;BMP280;53291;51.680;8.344;2022-07-31T07:08:49;100860.50;;;25.05
66473;BMP280;53291;51.680;8.344;2022-07-31T07:11:15;100862.78;;;25.25
66473;BMP280;53291;51.680;8.344;2022-07-31T07:13:41;100855.06;;;25.30
66473;BMP280;53291;51.680;8.344;2022-07-31T07:16:06;100855.78;;;25.37
66473;BMP280;53291;51.680;8.344;2022-07-31T07:18:32;100863.25;;;25.45
66473;BMP280;53291;51.680;8.344;2022-07-31T07:20:57;100854.34;;;25.00
66473;BMP280;53291;51.680;8.344;2022-07-31T07:23:22;100860.84;;;25.09
66473;BMP280;53291;51.680;8.344;2022-07-31T07:25:48;100861.72;;;24.91
66473;BMP280;53291;51.680;8.344;2022-07-31T07:28:14;100853.31;;;24.89
66473;BMP280;53291;51.680;8.344;2022-07-31T07:30:40;100867.00;;;25.03
66473;BMP280;53291;51.680;8.344;2022-07-31T07:33:05;100857.44;;;25.08
66473;BMP280;53291;51.680;8.344;2022-07-31T07:35:31;100861.81;;;24.85
66473;BMP280;53291;51.680;8.344;2022-07-31T07:37:57;100864.97;;;24.75
66473;BMP280;53291;51.680;8.344;2022-07-31T07:40:23;100863.56;;;24.61
66473;BMP280;53291;51.680;8.344;2022-07-31T07:42:49;100860.09;;;24.49
66473;BMP280;53291;51.680;8.344;2022-07-31T07:45:14;100859.53;;;24.29
66473;BMP280;53291;51.680;8.344;2022-07-31T07:47:40;100861.59;;;24.09
66473;BMP280;53291;51.680;8.344;2022-07-31T07:50:07;100862.59;;;24.08
66473;BMP280;53291;51.680;8.344;2022-07-31T07:52:33;100862.47;;;24.03
66473;BMP280;53291;51.680;8.344;2022-07-31T07:54:58;100868.06;;;24.06
66473;BMP280;53291;51.680;8.344;2022-07-31T07:57:24;100854.38;;;24.04
66473;BMP280;53291;51.680;8.344;2022-07-31T07:59:49;100853.91;;;24.14
66473;BMP280;53291;51.680;8.344;2022-07-31T08:02:15;100852.88;;;24.15
66473;BMP280;53291;51.680;8.344;2022-07-31T08:04:41;100852.44;;;24.18
66473;BMP280;53291;51.680;8.344;2022-07-31T08:07:07;100849.25;;;24.16
66473;BMP280;53291;51.680;8.344;2022-07-31T08:09:33;100850.41;;;24.38
66473;BMP280;53291;51.680;8.344;2022-07-31T08:12:00;100838.25;;;24.43
66473;BMP280;53291;51.680;8.344;2022-07-31T08:14:25;100841.00;;;24.48
66473;BMP280;53291;51.680;8.344;2022-07-31T08:16:51;100836.75;;;24.66
66473;BMP280;53291;51.680;8.344;2022-07-31T08:19:17;100830.56;;;24.60
66473;BMP280;53291;51.680;8.344;2022-07-31T08:21:42;100831.13;;;24.92
66473;BMP280;53291;51.680;8.344;2022-07-31T08:24:08;100826.34;;;25.24
66473;BMP280;53291;51.680;8.344;2022-07-31T08:26:35;100829.75;;;25.71
66473;BMP280;53291;51.680;8.344;2022-07-31T08:29:19;100825.16;;;25.89
66473;BMP280;53291;51.680;8.344;2022-07-31T08:31:45;100822.63;;;26.22
66473;BMP280;53291;51.680;8.344;2022-07-31T08:34:10;100824.03;;;26.42
66473;BMP280;53291;51.680;8.344;2022-07-31T08:36:37;100820.69;;;26.30
66473;BMP280;53291;51.680;8.344;2022-07-31T08:39:03;100816.56;;;26.34
66473;BMP280;53291;51.680;8.344;2022-07-31T08:41:29;100817.13;;;26.52
66473;BMP280;53291;51.680;8.344;2022-07-31T08:43:57;100817.56;;;26.77
66473;BMP280;53291;51.680;8.344;2022-07-31T08:46:23;100810.38;;;27.45
66473;BMP280;53291;51.680;8.344;2022-07-31T08:48:50;100804.78;;;28.70
66473;BMP280;53291;51.680;8.344;2022-07-31T08:51:19;100806.09;;;29.24
66473;BMP280;53291;51.680;8.344;2022-07-31T08:53:47;100800.94;;;29.54
66473;BMP280;53291;51.680;8.344;2022-07-31T08:56:14;100801.00;;;29.79
66473;BMP280;53291;51.680;8.344;2022-07-31T08:58:40;100805.22;;;30.71
66473;BMP280;53291;51.680;8.344;2022-07-31T09:01:14;100789.38;;;31.74
66473;BMP280;53291;51.680;8.344;2022-07-31T09:03:40;100793.34;;;32.10
66473;BMP280;53291;51.680;8.344;2022-07-31T09:06:05;100794.00;;;31.97
66473;BMP280;53291;51.680;8.344;2022-07-31T09:08:32;100784.94;;;31.21
66473;BMP280;53291;51.680;8.344;2022-07-31T09:11:16;100793.63;;;30.57
66473;BMP280;53291;51.680;8.344;2022-07-31T09:14:12;100782.91;;;29.26
66473;BMP280;53291;51.680;8.344;2022-07-31T09:16:46;100777.94;;;28.83
66473;BMP280;53291;51.680;8.344;2022-07-31T09:19:11;100786.31;;;28.70
66473;BMP280;53291;51.680;8.344;2022-07-31T09:21:43;100779.22;;;28.38
66473;BMP280;53291;51.680;8.344;2022-07-31T09:24:10;100783.56;;;28.23
66473;BMP280;53291;51.680;8.344;2022-07-31T09:26:37;100793.25;;;28.49
66473;BMP280;53291;51.680;8.344;2022-07-31T09:29:05;100784.78;;;28.42
66473;BMP280;53291;51.680;8.344;2022-07-31T09:31:36;100786.56;;;28.31
66473;BMP280;53291;51.680;8.344;2022-07-31T09:34:01;100778.66;;;28.31
66473;BMP280;53291;51.680;8.344;2022-07-31T09:36:27;100783.22;;;28.14
66473;BMP280;53291;51.680;8.344;2022-07-31T09:38:52;100786.13;;;28.44
66473;BMP280;53291;51.680;8.344;2022-07-31T09:41:19;100779.31;;;29.52
66473;BMP280;53291;51.680;8.344;2022-07-31T09:43:59;100781.50;;;29.75
66473;BMP280;53291;51.680;8.344;2022-07-31T09:46:25;100772.44;;;29.51
66473;BMP280;53291;51.680;8.344;2022-07-31T09:48:53;100780.75;;;29.13
66473;BMP280;53291;51.680;8.344;2022-07-31T09:51:22;100782.16;;;28.79
66473;BMP280;53291;51.680;8.344;2022-07-31T09:53:50;100773.25;;;28.53
66473;BMP280;53291;51.680;8.344;2022-07-31T09:56:30;100779.00;;;27.86
66473;BMP280;53291;51.680;8.344;2022-07-31T09:58:56;100774.66;;;27.97
66473;BMP280;53291;51.680;8.344;2022-07-31T10:01:22;100773.69;;;27.76
66473;BMP280;53291;51.680;8.344;2022-07-31T10:03:48;100772.94;;;27.59
66473;BMP280;53291;51.680;8.344;2022-07-31T10:06:16;100770.50;;;27.53
66473;BMP280;53291;51.680;8.344;2022-07-31T10:08:43;100766.19;;;27.68
66473;BMP280;53291;51.680;8.344;2022-07-31T10:11:10;100769.13;;;27.72
66473;BMP280;53291;51.680;8.344;2022-07-31T10:13:43;100771.56;;;27.78
66473;BMP280;53291;51.680;8.344;2022-07-31T10:16:10;100775.66;;;27.91
66473;BMP280;53291;51.680;8.344;2022-07-31T10:18:38;100767.06;;;28.01
66473;BMP280;53291;51.680;8.344;2022-07-31T10:21:05;100766.41;;;28.15
66473;BMP280;53291;51.680;8.344;2022-07-31T10:23:38;100767.69;;;28.13
66473;BMP280;53291;51.680;8.344;2022-07-31T10:26:04;100771.53;;;28.32
66473;BMP280;53291;51.680;8.344;2022-07-31T10:28:31;100759.88;;;28.54
66473;BMP280;53291;51.680;8.344;2022-07-31T10:30:57;100761.81;;;28.69
66473;BMP280;53291;51.680;8.344;2022-07-31T10:33:23;100764.03;;;28.50
66473;BMP280;53291;51.680;8.344;2022-07-31T10:38:26;100765.72;;;28.30
66473;BMP280;53291;51.680;8.344;2022-07-31T10:40:58;100768.28;;;28.20
66473;BMP280;53291;51.680;8.344;2022-07-31T10:45:59;100765.94;;;27.91
66473;BMP280;53291;51.680;8.344;2022-07-31T10:48:26;100761.34;;;27.82
66473;BMP280;53291;51.680;8.344;2022-07-31T10:51:03;100772.34;;;27.79
66473;BMP280;53291;51.680;8.344;2022-07-31T10:53:29;100784.38;;;27.70
66473;BMP280;53291;51.680;8.344;2022-07-31T10:56:02;100777.47;;;27.42
66473;BMP280;53291;51.680;8.344;2022-07-31T10:58:28;100783.44;;;27.37
66473;BMP280;53291;51.680;8.344;2022-07-31T11:01:06;100786.28;;;27.31
66473;BMP280;53291;51.680;8.344;2022-07-31T11:03:43;100784.88;;;27.23
66473;BMP280;53291;51.680;8.344;2022-07-31T11:06:12;100779.84;;;27.22
66473;BMP280;53291;51.680;8.344;2022-07-31T11:08:52;100779.63;;;27.23
66473;BMP280;53291;51.680;8.344;2022-07-31T11:11:30;100778.72;;;27.18
66473;BMP280;53291;51.680;8.344;2022-07-31T11:13:56;100776.00;;;27.29
66473;BMP280;53291;51.680;8.344;2022-07-31T11:16:24;100770.13;;;27.22
66473;BMP280;53291;51.680;8.344;2022-07-31T11:19:01;100765.53;;;27.13
66473;BMP280;53291;51.680;8.344;2022-07-31T11:23:58;100756.00;;;27.28
66473;BMP280;53291;51.680;8.344;2022-07-31T11:26:23;100755.47;;;27.26
66473;BMP280;53291;51.680;8.344;2022-07-31T11:28:49;100753.50;;;27.38
66473;BMP280;53291;51.680;8.344;2022-07-31T11:31:15;100751.34;;;27.35
66473;BMP280;53291;51.680;8.344;2022-07-31T11:33:45;100748.38;;;27.27
66473;BMP280;53291;51.680;8.344;2022-07-31T11:36:20;100757.63;;;27.29
66473;BMP280;53291;51.680;8.344;2022-07-31T11:38:47;100752.28;;;27.24
66473;BMP280;53291;51.680;8.344;2022-07-31T11:41:17;100749.16;;;27.49
66473;BMP280;53291;51.680;8.344;2022-07-31T11:43:49;100755.13;;;27.66
66473;BMP280;53291;51.680;8.344;2022-07-31T11:46:28;100766.78;;;28.02
66473;BMP280;53291;51.680;8.344;2022-07-31T11:48:54;100757.28;;;28.65
66473;BMP280;53291;51.680;8.344;2022-07-31T11:51:21;100752.31;;;29.20
66473;BMP280;53291;51.680;8.344;2022-07-31T11:53:48;100749.22;;;29.48
66473;BMP280;53291;51.680;8.344;2022-07-31T11:56:17;100754.44;;;29.28
66473;BMP280;53291;51.680;8.344;2022-07-31T11:58:47;100753.28;;;29.04
66473;BMP280;53291;51.680;8.344;2022-07-31T12:01:14;100746.22;;;28.63
66473;BMP280;53291;51.680;8.344;2022-07-31T12:03:40;100745.13;;;28.58
66473;BMP280;53291;51.680;8.344;2022-07-31T12:06:07;100749.59;;;28.16
66473;BMP280;53291;51.680;8.344;2022-07-31T12:08:33;100749.75;;;27.56
66473;BMP280;53291;51.680;8.344;2022-07-31T12:11:03;100748.06;;;27.23
66473;BMP280;53291;51.680;8.344;2022-07-31T12:13:30;100746.28;;;27.51
66473;BMP280;53291;51.680;8.344;2022-07-31T12:16:04;100743.53;;;27.40
66473;BMP280;53291;51.680;8.344;2022-07-31T12:18:54;100745.78;;;27.80
66473;BMP280;53291;51.680;8.344;2022-07-31T12:21:19;100743.78;;;27.87
66473;BMP280;53291;51.680;8.344;2022-07-31T12:23:48;100740.47;;;28.02
66473;BMP280;53291;51.680;8.344;2022-07-31T12:26:25;100732.63;;;28.39
66473;BMP280;53291;51.680;8.344;2022-07-31T12:29:10;100733.66;;;28.38
66473;BMP280;53291;51.680;8.344;2022-07-31T12:31:50;100737.06;;;28.33
66473;BMP280;53291;51.680;8.344;2022-07-31T12:34:32;100743.16;;;28.39
66473;BMP280;53291;51.680;8.344;2022-07-31T12:37:04;100733.41;;;28.34
66473;BMP280;53291;51.680;8.344;2022-07-31T12:39:33;100724.59;;;28.55
66473;BMP280;53291;51.680;8.344;2022-07-31T12:41:59;100732.44;;;28.14
66473;BMP280;53291;51.680;8.344;2022-07-31T12:44:24;100720.59;;;28.48
66473;BMP280;53291;51.680;8.344;2022-07-31T12:46:49;100723.59;;;28.62
66473;BMP280;53291;51.680;8.344;2022-07-31T12:49:15;100725.50;;;28.34
66473;BMP280;53291;51.680;8.344;2022-07-31T12:51:41;100722.69;;;28.14
66473;BMP280;53291;51.680;8.344;2022-07-31T12:54:10;100724.22;;;27.78
66473;BMP280;53291;51.680;8.344;2022-07-31T12:56:37;100721.06;;;27.11
66473;BMP280;53291;51.680;8.344;2022-07-31T12:59:03;100725.00;;;27.09
66473;BMP280;53291;51.680;8.344;2022-07-31T13:01:29;100725.84;;;26.93
66473;BMP280;53291;51.680;8.344;2022-07-31T13:03:55;100735.91;;;26.79
66473;BMP280;53291;51.680;8.344;2022-07-31T13:06:21;100728.50;;;26.76
66473;BMP280;53291;51.680;8.344;2022-07-31T13:08:47;100731.31;;;26.53
66473;BMP280;53291;51.680;8.344;2022-07-31T13:11:15;100735.22;;;26.34
66473;BMP280;53291;51.680;8.344;2022-07-31T13:13:41;100741.75;;;26.19
66473;BMP280;53291;51.680;8.344;2022-07-31T13:16:19;100739.22;;;26.08
66473;BMP280;53291;51.680;8.344;2022-07-31T13:18:44;100724.75;;;26.22
66473;BMP280;53291;51.680;8.344;2022-07-31T13:21:10;100725.66;;;26.11
66473;BMP280;53291;51.680;8.344;2022-07-31T13:23:36;100725.34;;;26.24
66473;BMP280;53291;51.680;8.344;2022-07-31T13:26:18;100719.47;;;26.34
66473;BMP280;53291;51.680;8.344;2022-07-31T13:28:51;100710.78;;;26.50
66473;BMP280;53291;51.680;8.344;2022-07-31T13:31:27;100715.28;;;26.71
66473;BMP280;53291;51.680;8.344;2022-07-31T13:33:56;100716.53;;;26.85
66473;BMP280;53291;51.680;8.344;2022-07-31T13:36:24;100707.88;;;26.85
66473;BMP280;53291;51.680;8.344;2022-07-31T13:39:00;100704.31;;;26.74
66473;BMP280;53291;51.680;8.344;2022-07-31T13:41:25;100704.94;;;26.81
66473;BMP280;53291;51.680;8.344;2022-07-31T13:43:58;100705.75;;;26.65
66473;BMP280;53291;51.680;8.344;2022-07-31T13:46:24;100707.09;;;26.51
66473;BMP280;53291;51.680;8.344;2022-07-31T13:48:52;100708.53;;;26.42
66473;BMP280;53291;51.680;8.344;2022-07-31T13:51:18;100712.84;;;26.31
66473;BMP280;53291;51.680;8.344;2022-07-31T13:53:43;100710.47;;;26.30
66473;BMP280;53291;51.680;8.344;2022-07-31T13:56:09;100699.84;;;26.41
66473;BMP280;53291;51.680;8.344;2022-07-31T13:58:35;100701.03;;;26.67
66473;BMP280;53291;51.680;8.344;2022-07-31T14:01:02;100712.81;;;26.81
66473;BMP280;53291;51.680;8.344;2022-07-31T14:03:27;100696.84;;;27.04
66473;BMP280;53291;51.680;8.344;2022-07-31T14:05:53;100692.41;;;27.26
66473;BMP280;53291;51.680;8.344;2022-07-31T14:08:19;100687.06;;;27.21